Time;durP1;ratioP1;P1;durP2;ratioP2;P2;SDS_P1;SDS_P2;PMS_P1;PMS_P2;Temp;Humidity;BMP_temperature;BMP_pressure;BME280_temperature;BME280_humidity;BME280_pressure;Samples;Min_cycle;Max_cycle;Signal;HPM_P1;HPM_P2
2023/03/09 00:00:41;;;;;;;4.77;3.63;;;1.10;97.30;;;;;;5011434;28;20426;-88
2023/03/09 00:03:15;;;;;;;2.23;2.07;;;1.10;97.30;;;;;;4997633;28;20205;-88
2023/03/09 00:05:59;;;;;;;5.37;3.43;;;1.10;97.30;;;;;;5001786;28;20994;-88
2023/03/09 00:08:34;;;;;;;2.27;1.53;;;1.10;97.30;;;;;;5009681;28;20427;-87
2023/03/09 00:11:00;;;;;;;1.53;1.43;;;1.10;97.30;;;;;;5014182;28;20450;-87
2023/03/09 00:13:32;;;;;;;9.70;3.93;;;1.10;97.30;;;;;;5007551;28;20439;-88
2023/03/09 00:16:28;;;;;;;3.60;2.07;;;1.10;97.30;;;;;;5010629;28;20177;-88
2023/03/09 00:18:58;;;;;;;2.90;1.30;;;1.10;97.30;;;;;;5004309;28;20434;-87
2023/03/09 00:21:41;;;;;;;2.40;2.30;;;1.10;97.30;;;;;;5009461;28;20758;-87
2023/03/09 00:24:14;;;;;;;3.67;2.83;;;1.10;97.30;;;;;;5007968;28;20463;-89
2023/03/09 00:26:42;;;;;;;10.30;6.00;;;1.10;97.30;;;;;;5011284;28;20558;-87
2023/03/09 00:29:10;;;;;;;3.50;2.20;;;1.10;97.30;;;;;;5005198;28;20432;-87
2023/03/09 00:31:36;;;;;;;3.80;3.60;;;1.10;97.30;;;;;;5010835;28;20427;-87
2023/03/09 00:34:02;;;;;;;4.43;2.80;;;1.10;97.30;;;;;;5011000;28;20450;-88
2023/03/09 00:36:27;;;;;;;5.50;2.83;;;1.10;97.30;;;;;;5006260;28;20440;-88
2023/03/09 00:38:55;;;;;;;2.40;2.20;;;1.10;97.30;;;;;;5009673;28;20219;-87
2023/03/09 00:41:22;;;;;;;5.23;2.13;;;1.10;97.30;;;;;;5024797;28;20175;-88
2023/03/09 00:43:48;;;;;;;3.97;3.77;;;1.10;97.30;;;;;;5002946;28;20470;-87
2023/03/09 00:46:14;;;;;;;3.27;2.03;;;1.10;97.30;;;;;;5001728;28;20416;-88
2023/03/09 00:48:40;;;;;;;5.30;1.93;;;1.10;97.30;;;;;;5013860;28;20472;-87
2023/03/09 00:51:07;;;;;;;9.70;3.27;;;1.10;97.30;;;;;;5013395;28;20419;-87
2023/03/09 00:53:34;;;;;;;5.70;4.73;;;1.10;97.30;;;;;;5005909;28;20436;-88
2023/03/09 00:56:04;;;;;;;8.07;4.27;;;1.10;97.30;;;;;;4999694;28;20423;-87
2023/03/09 00:58:30;;;;;;;4.17;3.47;;;1.10;97.30;;;;;;5006466;28;21229;-88
2023/03/09 01:00:56;;;;;;;5.73;4.80;;;1.10;97.30;;;;;;5001505;28;20542;-87
2023/03/09 01:03:22;;;;;;;2.93;2.70;;;1.10;97.30;;;;;;5002906;28;20392;-88
2023/03/09 01:05:48;;;;;;;2.60;2.40;;;1.10;97.30;;;;;;5002302;28;20513;-87
2023/03/09 01:08:13;;;;;;;4.33;2.23;;;1.10;97.30;;;;;;5007332;28;20503;-88
2023/03/09 01:10:40;;;;;;;9.83;4.80;;;1.10;97.30;;;;;;5007275;28;20173;-88
2023/03/09 01:13:05;;;;;;;3.53;3.33;;;1.10;97.30;;;;;;5010552;28;20197;-87
2023/03/09 01:15:31;;;;;;;9.00;6.73;;;1.10;97.30;;;;;;5009821;28;20821;-88
2023/03/09 01:17:57;;;;;;;6.93;5.20;;;1.10;97.30;;;;;;5009214;28;20189;-88
2023/03/09 01:20:22;;;;;;;5.60;3.70;;;1.10;97.30;;;;;;5009757;28;20188;-88
2023/03/09 01:22:48;;;;;;;3.03;2.90;;;1.10;97.30;;;;;;5005360;28;20177;-88
2023/03/09 01:25:14;;;;;;;2.60;2.20;;;1.10;97.30;;;;;;5011154;28;20467;-87
2023/03/09 01:27:39;;;;;;;8.63;2.77;;;1.10;97.30;;;;;;5017540;28;20212;-88
2023/03/09 01:30:06;;;;;;;2.10;1.57;;;1.10;97.30;;;;;;5004224;28;20173;-88
2023/03/09 01:32:31;;;;;;;3.77;3.57;;;1.10;97.30;;;;;;5016817;28;20212;-87
2023/03/09 01:34:57;;;;;;;2.83;2.50;;;1.10;97.30;;;;;;5007988;28;20582;-87
2023/03/09 01:37:23;;;;;;;3.37;2.10;;;1.10;97.30;;;;;;5011089;28;20655;-88
2023/03/09 01:39:48;;;;;;;3.10;2.90;;;1.10;97.30;;;;;;5007278;28;20599;-87
2023/03/09 01:42:14;;;;;;;8.03;6.03;;;1.10;97.30;;;;;;5017152;28;21009;-87
2023/03/09 01:44:40;;;;;;;7.53;3.43;;;1.10;97.30;;;;;;5015148;28;20200;-88
2023/03/09 01:47:05;;;;;;;2.60;2.40;;;1.10;97.30;;;;;;5015178;28;20184;-87
2023/03/09 01:49:40;;;;;;;2.50;2.30;;;1.00;97.30;;;;;;5015038;28;20180;-87
2023/03/09 01:52:24;;;;;;;2.00;1.90;;;1.00;97.30;;;;;;5004866;28;20180;-87
2023/03/09 01:55:07;;;;;;;8.63;2.97;;;1.00;97.30;;;;;;5010534;28;20450;-88
2023/03/09 01:57:40;;;;;;;6.50;4.50;;;1.00;97.30;;;;;;5010584;28;20427;-87
2023/03/09 02:00:18;;;;;;;6.63;3.30;;;1.00;97.30;;;;;;5008198;28;20420;-88
2023/03/09 02:03:00;;;;;;;3.63;3.23;;;1.00;97.30;;;;;;5024102;28;20487;-87
2023/03/09 02:05:44;;;;;;;1.73;1.63;;;1.00;97.30;;;;;;5028053;28;20553;-88
2023/03/09 02:08:11;;;;;;;2.43;2.23;;;1.00;97.30;;;;;;5005228;28;20418;-87
2023/03/09 02:10:43;;;;;;;2.07;1.93;;;1.00;97.30;;;;;;5016844;28;20442;-87
2023/03/09 02:13:13;;;;;;;1.43;1.33;;;0.90;97.30;;;;;;5012284;28;21028;-88
2023/03/09 02:15:39;;;;;;;2.27;2.07;;;0.90;97.30;;;;;;5009264;28;20450;-87
2023/03/09 02:18:04;;;;;;;3.10;2.90;;;0.90;97.30;;;;;;5005192;28;20455;-88
2023/03/09 02:20:53;;;;;;;5.30;2.33;;;0.90;97.30;;;;;;5001793;28;20223;-87
2023/03/09 02:23:42;;;;;;;1.63;1.53;;;0.90;97.30;;;;;;5006993;28;21001;-88
2023/03/09 02:26:30;;;;;;;1.53;1.43;;;0.90;97.30;;;;;;5025361;28;20459;-88
2023/03/09 02:28:56;;;;;;;2.90;2.70;;;0.90;97.30;;;;;;4992842;28;21023;-87
2023/03/09 02:31:21;;;;;;;1.80;1.70;;;0.90;97.30;;;;;;5011011;28;20896;-87
2023/03/09 02:33:47;;;;;;;2.60;1.30;;;0.90;97.30;;;;;;5030764;28;20204;-87
2023/03/09 02:36:12;;;;;;;2.47;2.27;;;0.90;97.30;;;;;;4999567;28;20217;-87
2023/03/09 02:38:38;;;;;;;4.13;1.63;;;0.90;97.30;;;;;;5014685;28;20671;-87
2023/03/09 02:41:05;;;;;;;3.17;2.97;;;0.90;97.30;;;;;;5022808;28;20185;-87
2023/03/09 02:43:37;;;;;;;2.77;2.60;;;0.90;97.30;;;;;;5008482;28;20291;-87
2023/03/09 02:46:03;;;;;;;3.80;3.60;;;0.90;97.30;;;;;;5014973;28;20431;-87
2023/03/09 02:48:28;;;;;;;3.00;1.93;;;0.90;97.30;;;;;;5028751;28;20686;-87
2023/03/09 02:50:54;;;;;;;1.47;1.20;;;0.90;97.30;;;;;;5010847;28;20165;-87
2023/03/09 02:53:19;;;;;;;2.87;2.70;;;0.90;97.30;;;;;;5012837;28;20456;-87
2023/03/09 02:55:45;;;;;;;1.67;1.57;;;0.90;97.30;;;;;;5003588;28;20183;-88
2023/03/09 02:58:11;;;;;;;2.23;2.03;;;0.90;97.30;;;;;;5005917;28;20212;-87
2023/03/09 03:00:36;;;;;;;4.07;2.87;;;0.90;97.30;;;;;;5009291;28;20200;-88
2023/03/09 03:03:02;;;;;;;2.07;1.93;;;0.90;97.30;;;;;;5000171;28;20300;-87
2023/03/09 03:05:27;;;;;;;1.77;1.67;;;0.90;97.30;;;;;;5004062;28;20235;-88
2023/03/09 03:07:53;;;;;;;2.80;1.67;;;0.90;97.30;;;;;;5014448;28;20184;-87
2023/03/09 03:10:18;;;;;;;6.33;2.93;;;0.90;97.30;;;;;;5011213;28;20236;-87
2023/03/09 03:12:44;;;;;;;2.70;1.27;;;0.90;97.30;;;;;;5013023;28;20210;-87
2023/03/09 03:15:10;;;;;;;2.00;1.87;;;0.90;97.30;;;;;;5007006;28;20427;-87
2023/03/09 03:17:36;;;;;;;4.63;1.93;;;0.90;97.30;;;;;;5000273;28;20185;-88
2023/03/09 03:20:02;;;;;;;4.63;1.53;;;0.90;97.30;;;;;;5005404;28;20554;-88
2023/03/09 03:22:28;;;;;;;1.10;1.00;;;0.90;97.30;;;;;;5002651;28;20184;-87
2023/03/09 03:24:54;;;;;;;2.77;2.57;;;0.90;97.30;;;;;;5002533;28;20475;-87
2023/03/09 03:27:19;;;;;;;1.60;1.50;;;0.90;97.30;;;;;;5009044;28;20181;-87
2023/03/09 03:29:45;;;;;;;1.50;1.40;;;0.90;97.30;;;;;;5002085;28;20192;-88
2023/03/09 03:32:11;;;;;;;1.63;1.53;;;0.90;97.30;;;;;;5003030;28;20176;-87
2023/03/09 03:34:36;;;;;;;0.93;0.83;;;0.90;97.30;;;;;;5008528;28;20844;-87
2023/03/09 03:37:02;;;;;;;1.50;1.40;;;0.90;97.30;;;;;;5003647;28;20610;-87
2023/03/09 03:39:27;;;;;;;1.20;1.10;;;0.90;97.30;;;;;;5013358;28;20177;-87
2023/03/09 03:41:53;;;;;;;1.87;1.77;;;0.90;97.30;;;;;;5003679;28;20683;-87
2023/03/09 03:44:18;;;;;;;2.20;2.03;;;0.90;97.30;;;;;;5000922;28;20211;-87
2023/03/09 03:46:44;;;;;;;1.50;1.40;;;0.90;97.30;;;;;;5013631;28;20168;-87
2023/03/09 03:49:09;;;;;;;3.03;2.83;;;0.90;97.30;;;;;;5006458;28;20284;-87
2023/03/09 03:51:35;;;;;;;4.00;2.90;;;0.90;97.30;;;;;;4999995;28;20204;-87
2023/03/09 03:54:01;;;;;;;1.10;1.00;;;0.90;97.30;;;;;;5011384;28;20201;-87
2023/03/09 03:56:26;;;;;;;1.20;1.10;;;0.90;97.30;;;;;;5007782;28;20444;-87
2023/03/09 03:58:52;;;;;;;2.00;1.87;;;0.90;97.30;;;;;;5010928;28;20203;-87
2023/03/09 04:01:17;;;;;;;1.47;1.37;;;0.90;97.30;;;;;;5010415;28;20687;-87
2023/03/09 04:03:43;;;;;;;1.40;1.30;;;0.90;97.30;;;;;;5008722;28;20208;-87
2023/03/09 04:06:08;;;;;;;1.70;1.40;;;0.90;97.30;;;;;;5013162;28;20180;-87
2023/03/09 04:08:34;;;;;;;2.50;1.87;;;0.90;97.30;;;;;;5011796;28;20192;-87
2023/03/09 04:11:05;;;;;;;6.03;3.43;;;0.90;97.30;;;;;;5013181;28;20586;-87
2023/03/09 04:13:30;;;;;;;1.90;1.80;;;0.90;97.30;;;;;;5008627;28;20225;-87
2023/03/09 04:15:56;;;;;;;3.17;3.03;;;0.90;97.30;;;;;;5003796;28;20509;-87
2023/03/09 04:18:21;;;;;;;2.30;1.83;;;0.90;97.30;;;;;;5007951;28;20655;-87
2023/03/09 04:20:47;;;;;;;5.13;2.73;;;0.90;97.30;;;;;;5004372;28;20188;-87
2023/03/09 04:23:13;;;;;;;1.47;1.37;;;0.90;97.30;;;;;;5004892;28;20226;-87
2023/03/09 04:25:38;;;;;;;2.23;2.03;;;0.90;97.30;;;;;;5025018;28;20276;-87
2023/03/09 04:28:04;;;;;;;2.23;2.00;;;0.90;97.30;;;;;;5017355;28;20455;-87
2023/03/09 04:30:30;;;;;;;1.80;1.70;;;0.90;97.30;;;;;;5013207;28;20172;-87
2023/03/09 04:32:56;;;;;;;2.03;1.43;;;0.90;97.30;;;;;;5012945;28;20243;-87
2023/03/09 04:35:22;;;;;;;3.13;2.50;;;0.90;97.30;;;;;;5012512;28;20228;-87
2023/03/09 04:37:47;;;;;;;1.90;1.83;;;0.90;97.30;;;;;;5021778;28;20181;-87
2023/03/09 04:40:13;;;;;;;34.67;3.27;;;0.90;97.30;;;;;;5012332;28;20184;-87
2023/03/09 04:42:39;;;;;;;1.30;1.20;;;0.90;97.30;;;;;;5014069;28;20185;-88
2023/03/09 04:45:05;;;;;;;4.40;2.57;;;0.90;97.30;;;;;;5010391;28;21035;-88
2023/03/09 04:47:31;;;;;;;1.77;1.43;;;0.90;97.30;;;;;;5006364;28;20184;-87
2023/03/09 04:49:56;;;;;;;2.63;2.43;;;0.90;97.30;;;;;;5020509;28;20936;-87
2023/03/09 04:52:22;;;;;;;7.30;3.37;;;0.90;97.30;;;;;;5008683;28;20254;-88
2023/03/09 04:54:48;;;;;;;2.20;1.73;;;0.90;97.30;;;;;;5004419;28;20331;-87
2023/03/09 04:57:14;;;;;;;4.20;3.53;;;0.90;97.30;;;;;;5010736;28;20189;-87
2023/03/09 04:59:40;;;;;;;1.57;1.47;;;1.00;97.30;;;;;;5016979;28;20197;-87
2023/03/09 05:02:06;;;;;;;8.37;2.00;;;1.00;97.30;;;;;;5001023;28;20423;-87
2023/03/09 05:04:32;;;;;;;1.57;1.47;;;1.00;97.30;;;;;;5014069;28;20697;-87
2023/03/09 05:06:57;;;;;;;2.23;2.03;;;1.00;97.30;;;;;;5011030;28;20418;-88
2023/03/09 05:09:23;;;;;;;2.80;1.97;;;1.00;97.30;;;;;;5016461;28;20445;-87
2023/03/09 05:11:52;;;;;;;1.47;1.37;;;1.00;97.30;;;;;;5008531;28;20177;-87
2023/03/09 05:14:18;;;;;;;2.87;2.70;;;1.00;97.30;;;;;;5016539;28;20663;-87
2023/03/09 05:16:44;;;;;;;2.77;2.57;;;1.00;97.30;;;;;;5006761;28;20466;-89
2023/03/09 05:19:11;;;;;;;1.17;1.07;;;1.00;97.30;;;;;;5009346;28;20459;-87
2023/03/09 05:21:37;;;;;;;2.80;2.60;;;1.00;97.30;;;;;;5004882;28;20502;-87
2023/03/09 05:24:03;;;;;;;1.40;1.30;;;1.00;97.30;;;;;;5016596;28;20980;-87
2023/03/09 05:26:28;;;;;;;1.47;1.37;;;1.00;97.30;;;;;;5008433;28;20426;-88
2023/03/09 05:28:54;;;;;;;1.20;1.10;;;1.00;97.30;;;;;;5034549;28;20419;-87
2023/03/09 05:31:20;;;;;;;1.47;1.37;;;1.00;97.30;;;;;;5016794;28;20172;-88
2023/03/09 05:33:45;;;;;;;2.23;2.03;;;1.00;97.30;;;;;;5016911;28;20193;-87
2023/03/09 05:36:17;;;;;;;3.43;2.37;;;1.00;97.30;;;;;;5009463;28;20253;-88
2023/03/09 05:38:42;;;;;;;1.97;1.80;;;1.00;97.30;;;;;;5012395;28;20180;-88
2023/03/09 05:41:08;;;;;;;1.50;1.40;;;1.00;97.30;;;;;;5011977;28;20452;-87
2023/03/09 05:43:35;;;;;;;1.53;1.50;;;1.10;97.30;;;;;;5016541;28;20682;-87
2023/03/09 05:46:01;;;;;;;1.73;1.63;;;1.10;97.30;;;;;;5003551;28;20181;-88
2023/03/09 05:48:27;;;;;;;2.40;2.20;;;1.10;97.30;;;;;;5022981;28;20438;-87
2023/03/09 05:50:52;;;;;;;13.73;2.03;;;1.10;97.30;;;;;;5002388;28;20419;-87
2023/03/09 05:53:18;;;;;;;3.60;2.53;;;1.10;97.30;;;;;;5016488;28;20705;-87
2023/03/09 05:55:43;;;;;;;4.67;2.80;;;1.10;97.30;;;;;;5008299;28;20267;-87
2023/03/09 05:58:09;;;;;;;1.60;1.50;;;1.10;97.30;;;;;;5005951;28;20566;-87
2023/03/09 06:00:35;;;;;;;2.23;2.03;;;1.10;97.30;;;;;;5010957;28;20177;-88
2023/03/09 06:03:01;;;;;;;2.07;1.93;;;1.10;97.30;;;;;;5014155;28;20208;-87
2023/03/09 06:05:26;;;;;;;2.57;1.87;;;1.10;97.30;;;;;;5012050;28;20465;-87
2023/03/09 06:07:52;;;;;;;1.90;1.23;;;1.10;97.30;;;;;;5006120;28;20275;-87
2023/03/09 06:10:17;;;;;;;2.53;2.33;;;1.10;97.30;;;;;;5001118;28;20173;-87
2023/03/09 06:12:43;;;;;;;1.60;1.50;;;1.10;97.30;;;;;;5007881;28;20187;-87
2023/03/09 06:15:09;;;;;;;1.50;1.20;;;1.10;97.30;;;;;;5014009;28;20249;-87
2023/03/09 06:17:35;;;;;;;2.87;2.67;;;1.10;97.30;;;;;;5025966;28;20188;-87
2023/03/09 06:20:02;;;;;;;1.80;1.70;;;1.10;97.30;;;;;;5015440;28;20431;-88
2023/03/09 06:22:27;;;;;;;1.17;1.07;;;1.00;97.30;;;;;;5015986;28;20189;-87
2023/03/09 06:24:52;;;;;;;2.27;2.07;;;1.00;97.30;;;;;;5033056;28;20843;-87
2023/03/09 06:27:23;;;;;;;2.17;1.97;;;1.10;97.30;;;;;;5016852;28;20187;-87
2023/03/09 06:30:03;;;;;;;2.90;2.63;;;1.10;97.30;;;;;;5016472;28;20181;-86
2023/03/09 06:32:32;;;;;;;2.23;2.10;;;1.10;97.30;;;;;;5007236;28;20427;-86
2023/03/09 06:35:02;;;;;;;12.50;4.80;;;1.10;97.30;;;;;;5014810;28;20458;-87
2023/03/09 06:38:10;;;;;;;3.77;1.80;;;1.10;97.30;;;;;;5006724;28;20503;-87
2023/03/09 06:40:45;;;;;;;1.43;1.33;;;1.10;97.30;;;;;;5006308;28;20434;-87
2023/03/09 06:43:21;;;;;;;1.10;1.10;;;1.10;97.30;;;;;;5012890;28;20438;-87
2023/03/09 06:45:53;;;;;;;1.30;1.20;;;1.10;97.30;;;;;;5011450;28;20560;-87
2023/03/09 06:48:21;;;;;;;2.37;2.17;;;1.10;97.30;;;;;;5015884;28;20427;-87
2023/03/09 06:51:02;;;;;;;3.70;2.13;;;1.10;97.30;;;;;;5015386;28;20427;-87
2023/03/09 06:53:33;;;;;;;1.77;1.67;;;1.10;97.30;;;;;;5023354;28;20443;-87
2023/03/09 06:56:02;;;;;;;1.83;1.73;;;1.10;97.30;;;;;;5007967;28;20506;-87
2023/03/09 06:58:41;;;;;;;1.87;1.43;;;1.20;97.30;;;;;;5011601;28;20494;-87
2023/03/09 07:01:22;;;;;;;15.13;2.37;;;1.30;97.30;;;;;;5015344;28;20446;-87
2023/03/09 07:04:01;;;;;;;3.17;2.03;;;1.30;97.30;;;;;;5008989;28;20451;-86
2023/03/09 07:07:00;;;;;;;8.63;4.63;;;1.30;97.30;;;;;;5015734;28;20458;-86
2023/03/09 07:09:32;;;;;;;1.97;1.87;;;1.30;97.30;;;;;;5003761;28;20412;-87
2023/03/09 07:12:11;;;;;;;2.70;2.50;;;1.20;97.30;;;;;;5013465;28;20431;-87
2023/03/09 07:14:51;;;;;;;3.03;2.87;;;1.30;97.30;;;;;;5006961;28;20533;-87
2023/03/09 07:17:22;;;;;;;1.93;1.60;;;1.30;97.30;;;;;;5005271;28;20515;-87
2023/03/09 07:20:01;;;;;;;1.70;1.63;;;1.30;97.30;;;;;;5011865;28;20433;-87
2023/03/09 07:22:40;;;;;;;3.90;2.50;;;1.40;97.30;;;;;;5015098;28;20419;-87
2023/03/09 07:25:22;;;;;;;2.33;1.67;;;1.40;97.30;;;;;;5007850;28;20467;-87
2023/03/09 07:27:53;;;;;;;3.40;2.40;;;1.50;97.30;;;;;;5009807;28;20425;-87
2023/03/09 07:30:24;;;;;;;2.20;2.03;;;1.50;97.30;;;;;;5006221;28;20451;-87
2023/03/09 07:32:52;;;;;;;1.97;1.83;;;1.50;97.30;;;;;;5014662;28;20415;-87
2023/03/09 07:35:21;;;;;;;1.43;1.33;;;1.60;97.30;;;;;;5007239;28;20467;-88
2023/03/09 07:37:47;;;;;;;1.40;1.30;;;1.70;97.30;;;;;;5002253;28;21001;-87
2023/03/09 07:40:12;;;;;;;1.30;1.20;;;1.70;97.30;;;;;;5014511;28;20431;-87
2023/03/09 07:42:39;;;;;;;3.37;2.80;;;1.80;97.30;;;;;;4998923;28;20211;-88
2023/03/09 07:45:06;;;;;;;8.03;3.37;;;1.80;97.30;;;;;;5012934;28;20553;-86
2023/03/09 07:47:32;;;;;;;3.63;2.00;;;1.90;97.30;;;;;;5009527;28;20238;-87
2023/03/09 07:49:58;;;;;;;2.20;1.73;;;1.90;97.30;;;;;;5006830;28;20420;-87
2023/03/09 07:52:30;;;;;;;1.33;1.30;;;1.90;97.30;;;;;;5031016;28;20435;-87
2023/03/09 07:54:59;;;;;;;4.40;3.43;;;2.00;97.30;;;;;;5028676;28;20463;-88
2023/03/09 07:57:29;;;;;;;1.20;1.10;;;2.00;97.30;;;;;;5026723;28;20427;-87
2023/03/09 07:59:55;;;;;;;1.67;1.57;;;2.00;97.30;;;;;;5017875;28;20455;-87
2023/03/09 08:02:21;;;;;;;1.27;1.17;;;2.00;97.30;;;;;;5029741;28;20465;-87
2023/03/09 08:04:49;;;;;;;1.00;0.90;;;2.00;97.30;;;;;;5014024;28;20584;-87
2023/03/09 08:07:16;;;;;;;1.83;1.73;;;2.00;97.30;;;;;;5014171;28;20439;-87
2023/03/09 08:09:41;;;;;;;10.40;2.23;;;2.10;97.30;;;;;;5016504;28;20419;-87
2023/03/09 08:12:07;;;;;;;1.63;1.53;;;2.10;97.30;;;;;;5019534;28;20418;-87
2023/03/09 08:14:33;;;;;;;1.73;1.63;;;2.10;97.30;;;;;;5021860;28;20211;-87
2023/03/09 08:17:01;;;;;;;2.40;2.20;;;2.20;97.30;;;;;;5019191;28;20423;-88
2023/03/09 08:19:26;;;;;;;1.30;1.20;;;2.20;97.30;;;;;;5018996;28;20349;-87
2023/03/09 08:21:52;;;;;;;1.63;1.53;;;2.20;97.30;;;;;;5020327;28;20427;-87
2023/03/09 08:24:17;;;;;;;1.80;1.70;;;2.20;97.30;;;;;;5009392;28;20212;-87
2023/03/09 08:26:43;;;;;;;1.73;1.63;;;2.30;97.30;;;;;;5017614;28;20294;-87
2023/03/09 08:29:09;;;;;;;1.93;1.70;;;2.30;97.30;;;;;;5016022;28;20188;-87
2023/03/09 08:31:35;;;;;;;2.33;2.13;;;2.30;97.30;;;;;;5011361;28;20630;-87
2023/03/09 08:34:02;;;;;;;1.70;1.60;;;2.30;97.30;;;;;;5022051;28;20446;-87
2023/03/09 08:36:28;;;;;;;1.30;1.20;;;2.30;97.30;;;;;;5008863;28;20427;-87
2023/03/09 08:38:54;;;;;;;2.80;1.33;;;2.40;97.30;;;;;;5020221;28;20419;-87
2023/03/09 08:41:20;;;;;;;4.93;1.97;;;2.40;97.30;;;;;;5033158;28;20186;-87
2023/03/09 08:43:46;;;;;;;3.57;1.40;;;2.50;97.30;;;;;;5016436;28;20439;-87
2023/03/09 08:46:12;;;;;;;2.50;1.67;;;2.50;97.30;;;;;;5020907;28;20485;-88
2023/03/09 08:48:38;;;;;;;2.70;2.50;;;2.60;97.30;;;;;;5019523;28;20430;-87
2023/03/09 08:51:05;;;;;;;1.33;1.23;;;2.60;97.30;;;;;;5012932;28;20523;-87
2023/03/09 08:53:35;;;;;;;1.83;1.63;;;2.60;97.30;;;;;;5005392;28;20219;-87
2023/03/09 08:56:06;;;;;;;2.73;2.10;;;2.60;97.30;;;;;;5010176;28;20411;-87
2023/03/09 08:58:32;;;;;;;8.27;2.37;;;2.60;97.30;;;;;;5020072;28;20440;-87
2023/03/09 09:01:00;;;;;;;1.43;1.33;;;2.50;97.30;;;;;;5048057;28;20844;-87
2023/03/09 09:03:27;;;;;;;3.43;1.77;;;2.60;97.30;;;;;;5014294;28;20629;-87
2023/03/09 09:05:53;;;;;;;1.27;1.17;;;2.70;97.30;;;;;;5015872;28;20553;-88
2023/03/09 09:08:19;;;;;;;3.33;1.50;;;2.70;97.30;;;;;;5024715;28;20447;-87
2023/03/09 09:10:45;;;;;;;1.53;1.43;;;2.80;97.30;;;;;;5024406;28;20176;-87
2023/03/09 09:13:10;;;;;;;1.60;1.47;;;2.80;97.30;;;;;;5024596;28;20430;-87
2023/03/09 09:15:37;;;;;;;6.67;2.97;;;2.90;97.30;;;;;;5025911;28;20422;-87
2023/03/09 09:18:03;;;;;;;4.10;1.73;;;2.90;97.30;;;;;;5024149;28;20618;-87
2023/03/09 09:20:29;;;;;;;2.73;1.87;;;3.00;97.30;;;;;;5026719;28;20471;-87
2023/03/09 09:22:54;;;;;;;2.27;2.10;;;3.00;97.30;;;;;;5021234;28;20215;-87
2023/03/09 09:25:20;;;;;;;2.30;2.10;;;3.00;97.30;;;;;;5018018;28;20207;-87
2023/03/09 09:27:49;;;;;;;2.23;2.03;;;3.10;97.30;;;;;;5018936;28;20187;-87
2023/03/09 09:30:15;;;;;;;5.93;3.07;;;3.00;97.30;;;;;;5020744;28;20535;-87
2023/03/09 09:32:41;;;;;;;2.60;1.60;;;3.00;97.30;;;;;;5022189;28;20420;-86
2023/03/09 09:35:07;;;;;;;4.40;3.43;;;3.00;97.30;;;;;;5020592;28;20307;-87
2023/03/09 09:37:33;;;;;;;2.43;2.23;;;2.90;97.30;;;;;;5010622;28;20189;-87
2023/03/09 09:39:58;;;;;;;2.60;1.80;;;2.90;97.30;;;;;;5017012;28;20478;-87
2023/03/09 09:42:34;;;;;;;2.23;2.03;;;2.90;97.30;;;;;;5006221;28;20184;-87
2023/03/09 09:45:02;;;;;;;1.97;1.87;;;3.00;97.30;;;;;;5027135;28;20649;-87
2023/03/09 09:47:30;;;;;;;1.30;1.20;;;3.10;97.30;;;;;;5020820;28;20411;-87
2023/03/09 09:49:59;;;;;;;3.13;2.73;;;3.20;97.30;;;;;;5043495;28;20419;-87
2023/03/09 09:52:46;;;;;;;8.20;3.10;;;3.20;97.30;;;;;;5030587;28;20408;-87
2023/03/09 09:55:25;;;;;;;4.10;1.87;;;3.30;97.30;;;;;;5012966;28;20414;-87
2023/03/09 09:58:17;;;;;;;3.17;3.00;;;3.40;97.30;;;;;;5035603;28;20418;-87
2023/03/09 10:00:46;;;;;;;2.80;2.60;;;3.40;97.30;;;;;;5007479;28;20435;-87
2023/03/09 10:03:23;;;;;;;3.53;2.40;;;3.30;97.30;;;;;;5017463;28;20443;-87
2023/03/09 10:06:08;;;;;;;4.27;2.73;;;3.30;97.30;;;;;;5017673;28;20473;-87
2023/03/09 10:08:36;;;;;;;5.23;1.77;;;3.30;97.30;;;;;;5007928;28;20411;-87
2023/03/09 10:11:27;;;;;;;2.53;2.33;;;3.30;97.30;;;;;;5014654;28;20777;-87
2023/03/09 10:14:20;;;;;;;4.13;2.97;;;3.40;97.30;;;;;;5008159;28;20455;-86
2023/03/09 10:16:54;;;;;;;4.60;2.73;;;3.30;97.30;;;;;;5012097;28;20415;-87
2023/03/09 10:19:34;;;;;;;1.70;1.60;;;3.40;97.30;;;;;;5013229;28;20423;-86
2023/03/09 10:22:12;;;;;;;1.87;1.73;;;3.50;97.30;;;;;;5012536;28;20458;-87
2023/03/09 10:24:46;;;;;;;3.67;3.23;;;3.50;97.30;;;;;;5015271;28;20477;-87
2023/03/09 10:27:30;;;;;;;7.17;3.77;;;3.50;97.30;;;;;;5012844;28;20437;-87
2023/03/09 10:30:01;;;;;;;3.07;2.87;;;3.50;97.30;;;;;;5012464;28;20965;-87
2023/03/09 10:32:40;;;;;;;8.90;1.93;;;3.50;97.30;;;;;;5027263;28;20432;-87
2023/03/09 10:35:19;;;;;;;2.60;2.40;;;3.50;97.30;;;;;;5006814;28;20470;-88
2023/03/09 10:37:46;;;;;;;2.97;2.77;;;3.60;97.30;;;;;;5021638;28;20411;-86
2023/03/09 10:40:36;;;;;;;2.67;2.47;;;3.60;97.30;;;;;;5015752;28;20519;-88
2023/03/09 10:43:04;;;;;;;11.50;2.77;;;3.70;97.30;;;;;;5016489;28;20454;-86
2023/03/09 10:45:31;;;;;;;7.70;3.00;;;3.70;97.30;;;;;;5012475;28;21045;-86
2023/03/09 10:48:04;;;;;;;2.70;2.40;;;3.70;97.30;;;;;;5022816;28;20416;-87
2023/03/09 10:50:32;;;;;;;3.30;3.10;;;3.70;97.30;;;;;;5004649;28;20424;-86
2023/03/09 10:53:34;;;;;;;4.73;3.10;;;3.60;97.30;;;;;;5007930;28;20993;-87
2023/03/09 10:56:03;;;;;;;1.67;1.57;;;3.60;97.30;;;;;;5023585;28;21010;-87
2023/03/09 10:58:32;;;;;;;2.93;2.73;;;3.50;97.30;;;;;;5015054;28;20427;-87
2023/03/09 11:01:02;;;;;;;3.13;2.93;;;3.50;97.30;;;;;;5008073;28;20415;-87
2023/03/09 11:03:34;;;;;;;4.47;3.50;;;3.50;97.30;;;;;;5004751;28;20451;-87
2023/03/09 11:06:35;;;;;;;4.20;2.30;;;3.50;97.30;;;;;;5006520;28;20554;-86
2023/03/09 11:09:17;;;;;;;3.30;2.33;;;3.50;97.30;;;;;;4998322;28;20411;-86
2023/03/09 11:11:47;;;;;;;8.00;4.77;;;3.50;97.30;;;;;;5004219;28;20837;-86
2023/03/09 11:14:40;;;;;;;5.90;4.00;;;3.50;97.30;;;;;;5003663;28;20523;-87
2023/03/09 11:17:25;;;;;;;3.90;3.67;;;3.50;97.30;;;;;;5013529;28;20419;-87
2023/03/09 11:20:19;;;;;;;7.17;3.00;;;3.60;97.30;;;;;;5013900;28;20809;-86
2023/03/09 11:23:09;;;;;;;5.37;4.10;;;3.60;97.30;;;;;;5004203;28;20424;-87
2023/03/09 11:25:40;;;;;;;3.03;2.83;;;3.60;97.30;;;;;;5002620;28;20612;-87
2023/03/09 11:28:38;;;;;;;3.97;3.07;;;3.60;97.30;;;;;;5007502;28;20527;-87
2023/03/09 11:31:12;;;;;;;1.33;1.23;;;3.60;97.30;;;;;;5011548;28;20427;-87
2023/03/09 11:33:38;;;;;;;2.63;2.43;;;3.70;97.30;;;;;;5010301;28;20440;-87
2023/03/09 11:36:05;;;;;;;3.80;3.03;;;3.70;97.30;;;;;;5001036;28;20543;-87
2023/03/09 11:38:31;;;;;;;1.73;1.20;;;3.70;97.30;;;;;;5006155;28;20173;-86
2023/03/09 11:41:15;;;;;;;2.50;2.30;;;3.80;97.30;;;;;;5007758;28;20432;-87
2023/03/09 11:43:43;;;;;;;4.13;3.70;;;3.80;97.30;;;;;;5016742;28;20447;-86
2023/03/09 11:46:17;;;;;;;3.80;3.37;;;3.70;97.30;;;;;;5004341;28;20468;-87
2023/03/09 11:49:08;;;;;;;4.10;3.10;;;3.70;97.30;;;;;;5008260;28;20875;-86
2023/03/09 11:51:45;;;;;;;4.77;4.47;;;3.70;97.30;;;;;;5008500;28;20432;-86
2023/03/09 11:54:33;;;;;;;10.27;2.10;;;3.70;97.30;;;;;;5011989;28;20747;-87
2023/03/09 11:57:04;;;;;;;1.97;1.83;;;3.70;97.30;;;;;;5009432;28;20427;-87
2023/03/09 11:59:42;;;;;;;2.17;2.00;;;3.70;97.30;;;;;;5021676;28;20431;-86
2023/03/09 12:02:34;;;;;;;2.50;2.37;;;3.70;97.30;;;;;;5002694;28;20438;-86
2023/03/09 12:05:01;;;;;;;2.03;1.63;;;3.70;97.30;;;;;;5014461;28;20471;-86
2023/03/09 12:07:41;;;;;;;3.10;1.20;;;3.70;97.30;;;;;;5005154;28;20455;-86
2023/03/09 12:10:35;;;;;;;8.83;3.17;;;3.70;97.30;;;;;;5014290;28;20430;-86
2023/03/09 12:13:24;;;;;;;3.57;2.03;;;3.70;97.30;;;;;;4993485;28;20730;-86
2023/03/09 12:16:01;;;;;;;3.07;2.87;;;3.70;97.30;;;;;;5005937;28;20421;-86
2023/03/09 12:18:33;;;;;;;2.67;2.47;;;3.70;97.30;;;;;;5006220;28;20855;-87
2023/03/09 12:21:01;;;;;;;5.97;2.87;;;3.70;97.30;;;;;;5003027;28;20428;-86
2023/03/09 12:23:36;;;;;;;4.83;2.87;;;3.70;97.30;;;;;;5017879;28;20443;-86
2023/03/09 12:26:24;;;;;;;3.17;2.97;;;3.70;97.30;;;;;;5026366;28;20477;-87
2023/03/09 12:28:58;;;;;;;11.43;5.73;;;3.70;97.30;;;;;;5019066;28;20424;-86
2023/03/09 12:31:36;;;;;;;13.93;3.60;;;3.70;97.30;;;;;;5009677;28;20506;-86
2023/03/09 12:34:03;;;;;;;2.93;2.53;;;3.70;97.30;;;;;;5010823;28;20435;-86
2023/03/09 12:36:39;;;;;;;6.30;3.93;;;3.70;97.30;;;;;;5024808;28;20511;-86
2023/03/09 12:39:28;;;;;;;7.00;2.60;;;3.60;97.30;;;;;;5009638;28;20419;-86
2023/03/09 12:41:58;;;;;;;6.40;4.10;;;3.60;97.30;;;;;;5011691;28;20436;-86
2023/03/09 12:44:43;;;;;;;4.10;2.80;;;3.60;97.30;;;;;;5011267;28;20466;-85
2023/03/09 12:47:46;;;;;;;2.50;2.30;;;3.60;97.30;;;;;;5021212;28;20411;-87
2023/03/09 12:50:39;;;;;;;3.73;3.53;;;3.50;97.30;;;;;;5001047;28;20411;-86
2023/03/09 12:53:14;;;;;;;16.63;4.40;;;3.50;97.30;;;;;;5012203;28;20454;-86
2023/03/09 12:55:39;;;;;;;4.10;3.23;;;3.50;97.30;;;;;;5006536;28;20490;-87
2023/03/09 12:58:17;;;;;;;6.17;3.97;;;3.50;97.30;;;;;;5006670;28;20522;-86
2023/03/09 13:01:05;;;;;;;6.83;4.73;;;3.50;97.30;;;;;;5026658;28;20190;-86
2023/03/09 13:03:44;;;;;;;13.80;6.50;;;3.50;97.30;;;;;;5009041;28;20892;-87
2023/03/09 13:06:31;;;;;;;4.60;4.30;;;3.40;97.30;;;;;;5027900;28;20474;-86
2023/03/09 13:09:08;;;;;;;8.00;4.90;;;3.50;97.30;;;;;;5007739;28;20415;-86
2023/03/09 13:11:41;;;;;;;2.47;2.30;;;3.50;97.30;;;;;;5035690;28;20423;-87
2023/03/09 13:14:36;;;;;;;2.17;2.00;;;3.50;97.30;;;;;;5013687;28;20492;-86
2023/03/09 13:17:32;;;;;;;6.40;4.10;;;3.60;97.30;;;;;;5001622;28;20408;-86